sensor_id;sensor_type;location;lat;lon;timestamp;P1;durP1;ratioP1;P2;durP2;ratioP2
68050;SDS011;54839;51.364;7.246;2023-08-07T00:02:24;3.47;;;2.53;;
68050;SDS011;54839;51.364;7.246;2023-08-07T00:04:50;4.73;;;1.77;;
68050;SDS011;54839;51.364;7.246;2023-08-07T00:07:16;3.90;;;2.07;;
68050;SDS011;54839;51.364;7.246;2023-08-07T00:09:43;1.97;;;1.83;;
68050;SDS011;54839;51.364;7.246;2023-08-07T00:12:08;1.47;;;1.37;;
68050;SDS011;54839;51.364;7.246;2023-08-07T00:14:34;2.40;;;1.47;;
68050;SDS011;54839;51.364;7.246;2023-08-07T00:17:00;1.17;;;1.07;;
68050;SDS011;54839;51.364;7.246;2023-08-07T00:19:25;2.30;;;1.37;;
68050;SDS011;54839;51.364;7.246;2023-08-07T00:21:51;1.93;;;1.70;;
68050;SDS011;54839;51.364;7.246;2023-08-07T00:24:16;1.63;;;1.53;;
68050;SDS011;54839;51.364;7.246;2023-08-07T00:26:42;1.60;;;1.40;;
68050;SDS011;54839;51.364;7.246;2023-08-07T00:29:07;1.30;;;1.10;;
68050;SDS011;54839;51.364;7.246;2023-08-07T00:31:33;2.93;;;1.93;;
68050;SDS011;54839;51.364;7.246;2023-08-07T00:33:58;1.80;;;1.70;;
68050;SDS011;54839;51.364;7.246;2023-08-07T00:36:24;1.50;;;1.30;;
68050;SDS011;54839;51.364;7.246;2023-08-07T00:38:53;1.90;;;1.30;;
68050;SDS011;54839;51.364;7.246;2023-08-07T00:41:19;2.23;;;1.40;;
68050;SDS011;54839;51.364;7.246;2023-08-07T00:43:45;3.67;;;2.40;;
68050;SDS011;54839;51.364;7.246;2023-08-07T00:46:10;2.60;;;2.37;;
68050;SDS011;54839;51.364;7.246;2023-08-07T00:48:36;2.07;;;1.87;;
68050;SDS011;54839;51.364;7.246;2023-08-07T00:51:02;3.60;;;2.60;;
68050;SDS011;54839;51.364;7.246;2023-08-07T00:53:29;6.43;;;3.10;;
68050;SDS011;54839;51.364;7.246;2023-08-07T00:55:55;5.73;;;3.30;;
68050;SDS011;54839;51.364;7.246;2023-08-07T00:58:22;5.97;;;3.90;;
68050;SDS011;54839;51.364;7.246;2023-08-07T01:00:48;8.40;;;3.10;;
68050;SDS011;54839;51.364;7.246;2023-08-07T01:03:14;5.10;;;2.73;;
68050;SDS011;54839;51.364;7.246;2023-08-07T01:05:39;4.60;;;2.77;;
68050;SDS011;54839;51.364;7.246;2023-08-07T01:08:05;4.83;;;4.20;;
68050;SDS011;54839;51.364;7.246;2023-08-07T01:13:21;3.90;;;3.40;;
68050;SDS011;54839;51.364;7.246;2023-08-07T01:15:58;3.07;;;2.10;;
68050;SDS011;54839;51.364;7.246;2023-08-07T01:18:28;7.10;;;2.27;;
68050;SDS011;54839;51.364;7.246;2023-08-07T01:20:55;3.80;;;2.40;;
68050;SDS011;54839;51.364;7.246;2023-08-07T01:23:21;2.30;;;2.10;;
68050;SDS011;54839;51.364;7.246;2023-08-07T01:25:47;5.80;;;2.50;;
68050;SDS011;54839;51.364;7.246;2023-08-07T01:28:16;5.00;;;2.20;;
68050;SDS011;54839;51.364;7.246;2023-08-07T01:30:54;6.00;;;2.73;;
68050;SDS011;54839;51.364;7.246;2023-08-07T01:33:29;6.73;;;2.43;;
68050;SDS011;54839;51.364;7.246;2023-08-07T01:36:01;3.13;;;2.20;;
68050;SDS011;54839;51.364;7.246;2023-08-07T01:38:30;2.63;;;1.87;;
68050;SDS011;54839;51.364;7.246;2023-08-07T01:40:56;3.80;;;1.97;;
68050;SDS011;54839;51.364;7.246;2023-08-07T01:43:23;5.20;;;1.73;;
68050;SDS011;54839;51.364;7.246;2023-08-07T01:45:48;3.97;;;2.07;;
68050;SDS011;54839;51.364;7.246;2023-08-07T01:48:14;3.90;;;1.37;;
68050;SDS011;54839;51.364;7.246;2023-08-07T01:50:40;2.70;;;1.77;;
68050;SDS011;54839;51.364;7.246;2023-08-07T01:53:05;2.50;;;1.53;;
68050;SDS011;54839;51.364;7.246;2023-08-07T01:55:31;7.43;;;2.77;;
68050;SDS011;54839;51.364;7.246;2023-08-07T01:57:57;3.83;;;1.70;;
68050;SDS011;54839;51.364;7.246;2023-08-07T02:00:22;2.40;;;1.80;;
68050;SDS011;54839;51.364;7.246;2023-08-07T02:02:48;2.83;;;2.20;;
68050;SDS011;54839;51.364;7.246;2023-08-07T02:05:14;5.50;;;1.70;;
68050;SDS011;54839;51.364;7.246;2023-08-07T02:07:40;3.50;;;2.10;;
68050;SDS011;54839;51.364;7.246;2023-08-07T02:10:06;2.80;;;1.60;;
68050;SDS011;54839;51.364;7.246;2023-08-07T02:12:32;6.00;;;1.43;;
68050;SDS011;54839;51.364;7.246;2023-08-07T02:14:58;2.47;;;1.63;;
68050;SDS011;54839;51.364;7.246;2023-08-07T02:17:25;1.83;;;1.60;;
68050;SDS011;54839;51.364;7.246;2023-08-07T02:19:52;2.30;;;1.43;;
68050;SDS011;54839;51.364;7.246;2023-08-07T02:22:18;2.67;;;1.30;;
68050;SDS011;54839;51.364;7.246;2023-08-07T02:24:44;3.00;;;1.37;;
68050;SDS011;54839;51.364;7.246;2023-08-07T02:27:09;2.50;;;0.90;;
68050;SDS011;54839;51.364;7.246;2023-08-07T02:29:35;7.50;;;1.43;;
68050;SDS011;54839;51.364;7.246;2023-08-07T02:32:01;7.43;;;2.10;;
68050;SDS011;54839;51.364;7.246;2023-08-07T02:34:28;1.30;;;1.20;;
68050;SDS011;54839;51.364;7.246;2023-08-07T02:36:54;3.23;;;1.40;;
68050;SDS011;54839;51.364;7.246;2023-08-07T02:39:19;2.20;;;1.47;;
68050;SDS011;54839;51.364;7.246;2023-08-07T02:41:45;2.90;;;1.30;;
68050;SDS011;54839;51.364;7.246;2023-08-07T02:44:10;4.87;;;1.47;;
68050;SDS011;54839;51.364;7.246;2023-08-07T02:46:36;1.10;;;1.00;;
68050;SDS011;54839;51.364;7.246;2023-08-07T02:49:01;1.47;;;0.70;;
68050;SDS011;54839;51.364;7.246;2023-08-07T02:51:27;1.20;;;1.10;;
68050;SDS011;54839;51.364;7.246;2023-08-07T02:53:53;1.80;;;1.07;;
68050;SDS011;54839;51.364;7.246;2023-08-07T02:56:18;2.40;;;1.20;;
68050;SDS011;54839;51.364;7.246;2023-08-07T02:58:44;2.23;;;1.73;;
68050;SDS011;54839;51.364;7.246;2023-08-07T03:01:09;2.80;;;1.70;;
68050;SDS011;54839;51.364;7.246;2023-08-07T03:03:36;2.87;;;2.23;;
68050;SDS011;54839;51.364;7.246;2023-08-07T03:06:02;3.93;;;3.63;;
68050;SDS011;54839;51.364;7.246;2023-08-07T03:08:28;5.33;;;4.83;;
68050;SDS011;54839;51.364;7.246;2023-08-07T03:10:55;5.17;;;4.13;;
68050;SDS011;54839;51.364;7.246;2023-08-07T03:13:22;9.60;;;5.07;;
68050;SDS011;54839;51.364;7.246;2023-08-07T03:15:48;6.93;;;4.50;;
68050;SDS011;54839;51.364;7.246;2023-08-07T03:18:15;6.00;;;5.00;;
68050;SDS011;54839;51.364;7.246;2023-08-07T03:20:41;7.90;;;6.10;;
68050;SDS011;54839;51.364;7.246;2023-08-07T03:23:08;8.03;;;6.17;;
68050;SDS011;54839;51.364;7.246;2023-08-07T03:25:36;6.47;;;5.50;;
68050;SDS011;54839;51.364;7.246;2023-08-07T03:28:02;8.80;;;5.00;;
68050;SDS011;54839;51.364;7.246;2023-08-07T03:30:28;6.70;;;3.80;;
68050;SDS011;54839;51.364;7.246;2023-08-07T03:32:54;3.20;;;2.90;;
68050;SDS011;54839;51.364;7.246;2023-08-07T03:35:19;3.33;;;3.03;;
68050;SDS011;54839;51.364;7.246;2023-08-07T03:37:45;4.90;;;3.70;;
68050;SDS011;54839;51.364;7.246;2023-08-07T03:40:10;4.87;;;3.43;;
68050;SDS011;54839;51.364;7.246;2023-08-07T03:42:36;6.80;;;4.00;;
68050;SDS011;54839;51.364;7.246;2023-08-07T03:45:02;7.20;;;3.33;;
68050;SDS011;54839;51.364;7.246;2023-08-07T03:47:27;8.20;;;3.70;;
68050;SDS011;54839;51.364;7.246;2023-08-07T03:49:53;5.67;;;2.90;;
68050;SDS011;54839;51.364;7.246;2023-08-07T03:52:19;8.13;;;3.70;;
68050;SDS011;54839;51.364;7.246;2023-08-07T03:54:44;12.30;;;4.47;;
68050;SDS011;54839;51.364;7.246;2023-08-07T03:57:10;10.13;;;3.50;;
68050;SDS011;54839;51.364;7.246;2023-08-07T03:59:36;7.80;;;4.50;;
68050;SDS011;54839;51.364;7.246;2023-08-07T04:02:02;4.73;;;2.67;;
68050;SDS011;54839;51.364;7.246;2023-08-07T04:04:28;6.93;;;3.30;;
68050;SDS011;54839;51.364;7.246;2023-08-07T04:06:53;6.30;;;3.20;;
68050;SDS011;54839;51.364;7.246;2023-08-07T04:09:19;13.30;;;4.67;;
68050;SDS011;54839;51.364;7.246;2023-08-07T04:11:45;6.30;;;3.93;;
68050;SDS011;54839;51.364;7.246;2023-08-07T04:14:10;9.03;;;4.43;;
68050;SDS011;54839;51.364;7.246;2023-08-07T04:16:36;14.33;;;5.87;;
68050;SDS011;54839;51.364;7.246;2023-08-07T04:19:02;6.90;;;3.33;;
68050;SDS011;54839;51.364;7.246;2023-08-07T04:21:28;10.33;;;5.40;;
68050;SDS011;54839;51.364;7.246;2023-08-07T04:23:54;10.80;;;5.10;;
68050;SDS011;54839;51.364;7.246;2023-08-07T04:26:20;8.67;;;3.80;;
68050;SDS011;54839;51.364;7.246;2023-08-07T04:28:46;8.33;;;5.10;;
68050;SDS011;54839;51.364;7.246;2023-08-07T04:31:11;9.70;;;5.53;;
68050;SDS011;54839;51.364;7.246;2023-08-07T04:33:37;9.47;;;5.50;;
68050;SDS011;54839;51.364;7.246;2023-08-07T04:36:03;9.70;;;6.07;;
68050;SDS011;54839;51.364;7.246;2023-08-07T04:38:29;9.43;;;5.20;;
68050;SDS011;54839;51.364;7.246;2023-08-07T04:40:54;15.83;;;6.33;;
68050;SDS011;54839;51.364;7.246;2023-08-07T04:43:20;12.73;;;5.30;;
68050;SDS011;54839;51.364;7.246;2023-08-07T04:45:46;5.83;;;3.83;;
68050;SDS011;54839;51.364;7.246;2023-08-07T04:48:11;10.03;;;4.33;;
68050;SDS011;54839;51.364;7.246;2023-08-07T04:50:38;7.90;;;3.90;;
68050;SDS011;54839;51.364;7.246;2023-08-07T04:53:04;7.70;;;4.67;;
68050;SDS011;54839;51.364;7.246;2023-08-07T04:55:30;5.73;;;3.80;;
68050;SDS011;54839;51.364;7.246;2023-08-07T04:57:56;7.63;;;3.90;;
68050;SDS011;54839;51.364;7.246;2023-08-07T05:00:22;7.70;;;3.70;;
68050;SDS011;54839;51.364;7.246;2023-08-07T05:02:48;15.93;;;4.03;;
68050;SDS011;54839;51.364;7.246;2023-08-07T05:05:14;12.20;;;4.60;;
68050;SDS011;54839;51.364;7.246;2023-08-07T05:07:40;9.40;;;3.93;;
68050;SDS011;54839;51.364;7.246;2023-08-07T05:10:07;10.00;;;4.70;;
68050;SDS011;54839;51.364;7.246;2023-08-07T05:12:33;12.67;;;4.90;;
68050;SDS011;54839;51.364;7.246;2023-08-07T05:14:59;8.70;;;4.03;;
68050;SDS011;54839;51.364;7.246;2023-08-07T05:17:24;12.70;;;4.37;;
68050;SDS011;54839;51.364;7.246;2023-08-07T05:19:50;12.00;;;5.17;;
68050;SDS011;54839;51.364;7.246;2023-08-07T05:22:15;13.10;;;6.70;;
68050;SDS011;54839;51.364;7.246;2023-08-07T05:24:41;14.77;;;6.83;;
68050;SDS011;54839;51.364;7.246;2023-08-07T05:27:08;10.70;;;6.90;;
68050;SDS011;54839;51.364;7.246;2023-08-07T05:29:34;18.67;;;9.67;;
68050;SDS011;54839;51.364;7.246;2023-08-07T05:32:07;11.43;;;8.03;;
68050;SDS011;54839;51.364;7.246;2023-08-07T05:34:34;11.47;;;6.93;;
68050;SDS011;54839;51.364;7.246;2023-08-07T05:36:59;12.03;;;8.30;;
68050;SDS011;54839;51.364;7.246;2023-08-07T05:39:25;8.70;;;6.77;;
68050;SDS011;54839;51.364;7.246;2023-08-07T05:41:50;8.37;;;5.20;;
68050;SDS011;54839;51.364;7.246;2023-08-07T05:44:18;9.57;;;6.50;;
68050;SDS011;54839;51.364;7.246;2023-08-07T05:46:44;7.90;;;6.27;;
68050;SDS011;54839;51.364;7.246;2023-08-07T05:49:09;5.97;;;5.47;;
68050;SDS011;54839;51.364;7.246;2023-08-07T05:51:35;6.60;;;4.80;;
68050;SDS011;54839;51.364;7.246;2023-08-07T05:54:01;6.57;;;4.10;;
68050;SDS011;54839;51.364;7.246;2023-08-07T05:56:26;4.57;;;3.60;;
68050;SDS011;54839;51.364;7.246;2023-08-07T05:58:52;4.63;;;2.60;;
68050;SDS011;54839;51.364;7.246;2023-08-07T06:01:17;5.00;;;3.93;;
68050;SDS011;54839;51.364;7.246;2023-08-07T06:03:43;4.33;;;3.77;;
68050;SDS011;54839;51.364;7.246;2023-08-07T06:06:09;4.53;;;3.40;;
68050;SDS011;54839;51.364;7.246;2023-08-07T06:08:34;4.53;;;2.60;;
68050;SDS011;54839;51.364;7.246;2023-08-07T06:11:00;5.07;;;3.47;;
68050;SDS011;54839;51.364;7.246;2023-08-07T06:13:30;4.83;;;2.47;;
68050;SDS011;54839;51.364;7.246;2023-08-07T06:15:56;3.80;;;2.20;;
68050;SDS011;54839;51.364;7.246;2023-08-07T06:18:21;3.10;;;2.73;;
68050;SDS011;54839;51.364;7.246;2023-08-07T06:20:47;2.70;;;2.40;;
68050;SDS011;54839;51.364;7.246;2023-08-07T06:23:12;6.57;;;3.67;;
68050;SDS011;54839;51.364;7.246;2023-08-07T06:25:38;5.20;;;4.40;;
68050;SDS011;54839;51.364;7.246;2023-08-07T06:28:03;3.90;;;3.50;;
68050;SDS011;54839;51.364;7.246;2023-08-07T06:30:31;5.87;;;4.40;;
68050;SDS011;54839;51.364;7.246;2023-08-07T06:32:56;5.30;;;4.07;;
68050;SDS011;54839;51.364;7.246;2023-08-07T06:35:22;6.00;;;3.77;;
68050;SDS011;54839;51.364;7.246;2023-08-07T06:37:48;7.13;;;5.07;;
68050;SDS011;54839;51.364;7.246;2023-08-07T06:40:13;8.60;;;4.13;;
68050;SDS011;54839;51.364;7.246;2023-08-07T06:42:39;6.73;;;4.90;;
68050;SDS011;54839;51.364;7.246;2023-08-07T06:45:05;7.13;;;3.50;;
68050;SDS011;54839;51.364;7.246;2023-08-07T06:47:31;4.27;;;3.10;;
68050;SDS011;54839;51.364;7.246;2023-08-07T06:49:57;4.53;;;3.40;;
68050;SDS011;54839;51.364;7.246;2023-08-07T06:52:22;5.93;;;4.63;;
68050;SDS011;54839;51.364;7.246;2023-08-07T06:54:48;3.47;;;2.13;;
68050;SDS011;54839;51.364;7.246;2023-08-07T06:57:14;7.00;;;3.90;;
68050;SDS011;54839;51.364;7.246;2023-08-07T06:59:40;3.50;;;3.20;;
68050;SDS011;54839;51.364;7.246;2023-08-07T07:02:05;5.90;;;3.00;;
68050;SDS011;54839;51.364;7.246;2023-08-07T07:04:31;7.40;;;5.17;;
68050;SDS011;54839;51.364;7.246;2023-08-07T07:06:58;5.17;;;3.50;;
68050;SDS011;54839;51.364;7.246;2023-08-07T07:09:23;3.63;;;2.73;;
68050;SDS011;54839;51.364;7.246;2023-08-07T07:11:49;4.83;;;2.87;;
68050;SDS011;54839;51.364;7.246;2023-08-07T07:14:15;6.03;;;2.67;;
68050;SDS011;54839;51.364;7.246;2023-08-07T07:16:40;6.83;;;2.70;;
68050;SDS011;54839;51.364;7.246;2023-08-07T07:19:07;4.33;;;1.80;;
68050;SDS011;54839;51.364;7.246;2023-08-07T07:21:34;5.20;;;2.93;;
68050;SDS011;54839;51.364;7.246;2023-08-07T07:24:00;3.10;;;2.13;;
68050;SDS011;54839;51.364;7.246;2023-08-07T07:26:29;4.50;;;2.33;;
68050;SDS011;54839;51.364;7.246;2023-08-07T07:28:55;8.80;;;3.27;;
68050;SDS011;54839;51.364;7.246;2023-08-07T07:31:21;3.90;;;3.20;;
68050;SDS011;54839;51.364;7.246;2023-08-07T07:33:47;3.70;;;2.80;;
68050;SDS011;54839;51.364;7.246;2023-08-07T07:36:14;4.93;;;2.87;;
68050;SDS011;54839;51.364;7.246;2023-08-07T07:38:47;2.90;;;2.00;;
68050;SDS011;54839;51.364;7.246;2023-08-07T07:41:14;4.47;;;2.83;;
68050;SDS011;54839;51.364;7.246;2023-08-07T07:43:40;4.50;;;3.00;;
68050;SDS011;54839;51.364;7.246;2023-08-07T07:46:06;3.50;;;2.53;;
68050;SDS011;54839;51.364;7.246;2023-08-07T07:48:32;6.93;;;2.50;;
68050;SDS011;54839;51.364;7.246;2023-08-07T07:50:58;4.13;;;3.70;;
68050;SDS011;54839;51.364;7.246;2023-08-07T07:53:24;4.30;;;1.93;;
68050;SDS011;54839;51.364;7.246;2023-08-07T07:55:50;5.03;;;2.27;;
68050;SDS011;54839;51.364;7.246;2023-08-07T07:58:16;2.57;;;2.30;;
68050;SDS011;54839;51.364;7.246;2023-08-07T08:00:41;2.73;;;1.80;;
68050;SDS011;54839;51.364;7.246;2023-08-07T08:03:07;2.30;;;2.10;;
68050;SDS011;54839;51.364;7.246;2023-08-07T08:05:33;4.93;;;2.83;;
68050;SDS011;54839;51.364;7.246;2023-08-07T08:07:59;5.00;;;2.67;;
68050;SDS011;54839;51.364;7.246;2023-08-07T08:10:26;5.43;;;3.63;;
68050;SDS011;54839;51.364;7.246;2023-08-07T08:12:54;5.90;;;3.30;;
68050;SDS011;54839;51.364;7.246;2023-08-07T08:15:20;2.90;;;2.70;;
68050;SDS011;54839;51.364;7.246;2023-08-07T08:17:46;3.70;;;2.97;;
68050;SDS011;54839;51.364;7.246;2023-08-07T08:20:12;6.17;;;3.20;;
68050;SDS011;54839;51.364;7.246;2023-08-07T08:22:42;4.60;;;3.40;;
68050;SDS011;54839;51.364;7.246;2023-08-07T08:25:08;3.30;;;3.00;;
68050;SDS011;54839;51.364;7.246;2023-08-07T08:27:34;7.23;;;2.53;;
68050;SDS011;54839;51.364;7.246;2023-08-07T08:30:00;4.37;;;2.67;;
68050;SDS011;54839;51.364;7.246;2023-08-07T08:32:26;4.70;;;3.13;;
68050;SDS011;54839;51.364;7.246;2023-08-07T08:34:51;4.70;;;4.20;;
68050;SDS011;54839;51.364;7.246;2023-08-07T08:37:17;10.33;;;4.27;;
68050;SDS011;54839;51.364;7.246;2023-08-07T08:39:43;5.50;;;3.93;;
68050;SDS011;54839;51.364;7.246;2023-08-07T08:42:09;6.77;;;3.97;;
68050;SDS011;54839;51.364;7.246;2023-08-07T08:44:38;4.70;;;3.00;;
68050;SDS011;54839;51.364;7.246;2023-08-07T08:47:05;4.87;;;3.13;;
68050;SDS011;54839;51.364;7.246;2023-08-07T08:49:37;5.90;;;5.03;;
68050;SDS011;54839;51.364;7.246;2023-08-07T08:52:15;3.47;;;3.17;;
68050;SDS011;54839;51.364;7.246;2023-08-07T08:54:43;11.50;;;5.50;;
68050;SDS011;54839;51.364;7.246;2023-08-07T08:57:09;10.27;;;5.07;;
68050;SDS011;54839;51.364;7.246;2023-08-07T08:59:36;8.43;;;6.70;;
68050;SDS011;54839;51.364;7.246;2023-08-07T09:02:02;7.90;;;7.03;;
68050;SDS011;54839;51.364;7.246;2023-08-07T09:04:29;8.73;;;7.03;;
68050;SDS011;54839;51.364;7.246;2023-08-07T09:06:55;9.70;;;6.20;;
68050;SDS011;54839;51.364;7.246;2023-08-07T09:09:21;10.50;;;4.93;;
68050;SDS011;54839;51.364;7.246;2023-08-07T09:11:47;11.13;;;6.67;;
68050;SDS011;54839;51.364;7.246;2023-08-07T09:14:19;10.90;;;6.87;;
68050;SDS011;54839;51.364;7.246;2023-08-07T09:16:48;10.10;;;7.40;;
68050;SDS011;54839;51.364;7.246;2023-08-07T09:19:15;14.50;;;7.00;;
68050;SDS011;54839;51.364;7.246;2023-08-07T09:21:40;12.10;;;5.60;;
68050;SDS011;54839;51.364;7.246;2023-08-07T09:24:06;9.77;;;5.40;;
68050;SDS011;54839;51.364;7.246;2023-08-07T09:26:32;14.60;;;5.33;;
68050;SDS011;54839;51.364;7.246;2023-08-07T09:29:01;9.80;;;5.80;;
68050;SDS011;54839;51.364;7.246;2023-08-07T09:31:27;9.37;;;5.43;;
68050;SDS011;54839;51.364;7.246;2023-08-07T09:34:00;6.60;;;4.33;;
68050;SDS011;54839;51.364;7.246;2023-08-07T09:36:33;6.17;;;3.97;;
68050;SDS011;54839;51.364;7.246;2023-08-07T09:39:02;9.90;;;3.70;;
68050;SDS011;54839;51.364;7.246;2023-08-07T09:41:32;10.37;;;4.57;;
68050;SDS011;54839;51.364;7.246;2023-08-07T09:43:59;11.03;;;3.97;;
68050;SDS011;54839;51.364;7.246;2023-08-07T09:46:33;9.27;;;4.17;;
68050;SDS011;54839;51.364;7.246;2023-08-07T09:49:06;8.77;;;3.70;;
68050;SDS011;54839;51.364;7.246;2023-08-07T09:51:44;5.27;;;3.43;;
68050;SDS011;54839;51.364;7.246;2023-08-07T09:54:11;10.90;;;4.60;;
68050;SDS011;54839;51.364;7.246;2023-08-07T09:56:40;7.53;;;3.97;;
68050;SDS011;54839;51.364;7.246;2023-08-07T09:59:06;7.80;;;3.57;;
68050;SDS011;54839;51.364;7.246;2023-08-07T10:01:33;12.50;;;4.40;;
68050;SDS011;54839;51.364;7.246;2023-08-07T10:04:03;11.33;;;3.90;;
68050;SDS011;54839;51.364;7.246;2023-08-07T10:06:30;5.33;;;3.00;;
68050;SDS011;54839;51.364;7.246;2023-08-07T10:08:56;4.20;;;2.60;;
68050;SDS011;54839;51.364;7.246;2023-08-07T10:11:22;4.40;;;3.40;;
68050;SDS011;54839;51.364;7.246;2023-08-07T10:13:48;6.87;;;3.33;;
68050;SDS011;54839;51.364;7.246;2023-08-07T10:16:15;7.13;;;3.37;;
68050;SDS011;54839;51.364;7.246;2023-08-07T10:18:40;7.23;;;3.70;;
68050;SDS011;54839;51.364;7.246;2023-08-07T10:21:06;8.10;;;3.80;;
68050;SDS011;54839;51.364;7.246;2023-08-07T10:23:33;8.90;;;4.87;;
68050;SDS011;54839;51.364;7.246;2023-08-07T10:26:01;13.93;;;5.17;;
68050;SDS011;54839;51.364;7.246;2023-08-07T10:28:31;11.97;;;4.77;;
68050;SDS011;54839;51.364;7.246;2023-08-07T10:31:02;4.87;;;4.13;;
68050;SDS011;54839;51.364;7.246;2023-08-07T10:33:29;8.77;;;5.10;;
68050;SDS011;54839;51.364;7.246;2023-08-07T10:35:57;10.77;;;4.40;;
68050;SDS011;54839;51.364;7.246;2023-08-07T10:38:24;13.00;;;5.63;;
68050;SDS011;54839;51.364;7.246;2023-08-07T10:43:36;8.27;;;4.77;;
68050;SDS011;54839;51.364;7.246;2023-08-07T10:46:03;10.63;;;3.80;;
68050;SDS011;54839;51.364;7.246;2023-08-07T10:48:47;9.03;;;4.00;;
68050;SDS011;54839;51.364;7.246;2023-08-07T10:51:18;12.03;;;4.27;;
68050;SDS011;54839;51.364;7.246;2023-08-07T10:53:46;6.00;;;3.20;;
68050;SDS011;54839;51.364;7.246;2023-08-07T10:56:29;8.70;;;4.10;;
68050;SDS011;54839;51.364;7.246;2023-08-07T10:58:56;5.43;;;3.23;;
68050;SDS011;54839;51.364;7.246;2023-08-07T11:01:27;4.43;;;3.03;;
68050;SDS011;54839;51.364;7.246;2023-08-07T11:03:56;9.47;;;4.53;;
68050;SDS011;54839;51.364;7.246;2023-08-07T11:06:27;9.03;;;4.40;;
68050;SDS011;54839;51.364;7.246;2023-08-07T11:08:58;9.10;;;3.83;;
68050;SDS011;54839;51.364;7.246;2023-08-07T11:11:24;7.60;;;3.90;;
68050;SDS011;54839;51.364;7.246;2023-08-07T11:13:51;12.83;;;4.60;;
68050;SDS011;54839;51.364;7.246;2023-08-07T11:16:17;10.40;;;5.30;;
68050;SDS011;54839;51.364;7.246;2023-08-07T11:18:45;8.10;;;4.07;;
68050;SDS011;54839;51.364;7.246;2023-08-07T11:21:12;6.10;;;3.23;;
68050;SDS011;54839;51.364;7.246;2023-08-07T11:23:39;10.77;;;5.10;;
68050;SDS011;54839;51.364;7.246;2023-08-07T11:26:05;9.63;;;4.30;;
68050;SDS011;54839;51.364;7.246;2023-08-07T11:28:31;7.50;;;4.37;;
68050;SDS011;54839;51.364;7.246;2023-08-07T11:30:57;10.30;;;4.10;;
68050;SDS011;54839;51.364;7.246;2023-08-07T11:33:23;13.33;;;4.90;;
68050;SDS011;54839;51.364;7.246;2023-08-07T11:35:50;6.33;;;3.70;;
68050;SDS011;54839;51.364;7.246;2023-08-07T11:40:59;7.70;;;3.53;;
68050;SDS011;54839;51.364;7.246;2023-08-07T11:43:29;9.80;;;6.53;;
68050;SDS011;54839;51.364;7.246;2023-08-07T11:45:56;8.70;;;4.27;;
68050;SDS011;54839;51.364;7.246;2023-08-07T11:48:25;8.60;;;4.40;;
68050;SDS011;54839;51.364;7.246;2023-08-07T11:50:52;13.03;;;5.60;;
68050;SDS011;54839;51.364;7.246;2023-08-07T11:53:19;6.03;;;2.60;;
68050;SDS011;54839;51.364;7.246;2023-08-07T11:55:57;8.47;;;3.80;;
68050;SDS011;54839;51.364;7.246;2023-08-07T11:58:31;5.83;;;3.03;;
68050;SDS011;54839;51.364;7.246;2023-08-07T12:01:05;12.40;;;4.57;;
68050;SDS011;54839;51.364;7.246;2023-08-07T12:03:35;9.33;;;3.90;;
68050;SDS011;54839;51.364;7.246;2023-08-07T12:06:04;12.10;;;4.80;;
68050;SDS011;54839;51.364;7.246;2023-08-07T12:08:40;7.60;;;3.17;;
68050;SDS011;54839;51.364;7.246;2023-08-07T12:11:07;12.40;;;5.13;;
68050;SDS011;54839;51.364;7.246;2023-08-07T12:13:36;8.30;;;3.40;;
68050;SDS011;54839;51.364;7.246;2023-08-07T12:16:09;13.30;;;4.43;;
68050;SDS011;54839;51.364;7.246;2023-08-07T12:18:42;8.80;;;4.03;;
68050;SDS011;54839;51.364;7.246;2023-08-07T12:21:22;12.90;;;5.03;;
68050;SDS011;54839;51.364;7.246;2023-08-07T12:23:49;6.50;;;4.40;;
68050;SDS011;54839;51.364;7.246;2023-08-07T12:26:16;11.90;;;4.17;;
68050;SDS011;54839;51.364;7.246;2023-08-07T12:28:42;9.87;;;4.43;;
68050;SDS011;54839;51.364;7.246;2023-08-07T12:31:08;9.23;;;4.00;;
68050;SDS011;54839;51.364;7.246;2023-08-07T12:33:33;6.47;;;3.23;;
68050;SDS011;54839;51.364;7.246;2023-08-07T12:36:00;6.40;;;3.50;;
68050;SDS011;54839;51.364;7.246;2023-08-07T12:38:26;11.37;;;4.00;;
68050;SDS011;54839;51.364;7.246;2023-08-07T12:40:53;7.83;;;2.90;;
68050;SDS011;54839;51.364;7.246;2023-08-07T12:43:19;6.77;;;2.80;;
68050;SDS011;54839;51.364;7.246;2023-08-07T12:45:44;8.80;;;3.40;;
68050;SDS011;54839;51.364;7.246;2023-08-07T12:48:10;5.30;;;2.23;;
68050;SDS011;54839;51.364;7.246;2023-08-07T12:50:36;7.20;;;2.70;;
68050;SDS011;54839;51.364;7.246;2023-08-07T12:53:01;7.00;;;2.33;;
68050;SDS011;54839;51.364;7.246;2023-08-07T12:55:28;5.00;;;2.30;;
68050;SDS011;54839;51.364;7.246;2023-08-07T12:57:54;5.87;;;2.63;;
68050;SDS011;54839;51.364;7.246;2023-08-07T13:00:20;4.00;;;1.93;;
68050;SDS011;54839;51.364;7.246;2023-08-07T13:02:47;6.10;;;2.40;;
68050;SDS011;54839;51.364;7.246;2023-08-07T13:05:14;6.20;;;2.80;;
68050;SDS011;54839;51.364;7.246;2023-08-07T13:07:42;6.60;;;2.67;;
68050;SDS011;54839;51.364;7.246;2023-08-07T13:10:08;10.50;;;3.10;;
68050;SDS011;54839;51.364;7.246;2023-08-07T13:12:36;8.53;;;2.20;;
68050;SDS011;54839;51.364;7.246;2023-08-07T13:15:03;7.33;;;2.40;;
68050;SDS011;54839;51.364;7.246;2023-08-07T13:17:30;5.80;;;2.33;;
68050;SDS011;54839;51.364;7.246;2023-08-07T13:19:56;6.67;;;2.20;;
68050;SDS011;54839;51.364;7.246;2023-08-07T13:22:22;4.77;;;3.00;;
68050;SDS011;54839;51.364;7.246;2023-08-07T13:24:48;5.90;;;2.67;;
68050;SDS011;54839;51.364;7.246;2023-08-07T13:27:13;8.00;;;2.87;;
68050;SDS011;54839;51.364;7.246;2023-08-07T13:29:39;4.40;;;2.03;;
68050;SDS011;54839;51.364;7.246;2023-08-07T13:32:05;5.30;;;2.60;;
68050;SDS011;54839;51.364;7.246;2023-08-07T13:34:35;5.40;;;2.80;;
68050;SDS011;54839;51.364;7.246;2023-08-07T13:37:01;7.50;;;2.80;;
68050;SDS011;54839;51.364;7.246;2023-08-07T13:39:27;4.87;;;1.83;;
68050;SDS011;54839;51.364;7.246;2023-08-07T13:41:53;6.37;;;2.30;;
68050;SDS011;54839;51.364;7.246;2023-08-07T13:44:19;5.80;;;2.60;;
68050;SDS011;54839;51.364;7.246;2023-08-07T13:46:45;4.50;;;2.10;;
68050;SDS011;54839;51.364;7.246;2023-08-07T13:49:12;2.47;;;1.67;;
68050;SDS011;54839;51.364;7.246;2023-08-07T13:51:38;2.90;;;1.57;;
68050;SDS011;54839;51.364;7.246;2023-08-07T13:54:04;3.83;;;2.00;;
68050;SDS011;54839;51.364;7.246;2023-08-07T13:56:29;5.80;;;1.57;;
68050;SDS011;54839;51.364;7.246;2023-08-07T13:58:55;9.27;;;2.70;;
68050;SDS011;54839;51.364;7.246;2023-08-07T14:01:20;6.03;;;2.83;;
68050;SDS011;54839;51.364;7.246;2023-08-07T14:03:46;6.60;;;2.13;;
68050;SDS011;54839;51.364;7.246;2023-08-07T14:06:12;6.13;;;2.30;;
68050;SDS011;54839;51.364;7.246;2023-08-07T14:08:37;3.70;;;2.00;;
68050;SDS011;54839;51.364;7.246;2023-08-07T14:11:03;3.70;;;2.10;;
68050;SDS011;54839;51.364;7.246;2023-08-07T14:13:29;3.07;;;2.10;;
68050;SDS011;54839;51.364;7.246;2023-08-07T14:15:55;4.40;;;2.30;;
68050;SDS011;54839;51.364;7.246;2023-08-07T14:18:20;4.60;;;1.93;;
68050;SDS011;54839;51.364;7.246;2023-08-07T14:20:46;5.13;;;2.40;;
68050;SDS011;54839;51.364;7.246;2023-08-07T14:23:12;3.40;;;1.73;;
68050;SDS011;54839;51.364;7.246;2023-08-07T14:25:37;4.27;;;3.40;;
68050;SDS011;54839;51.364;7.246;2023-08-07T14:28:03;4.17;;;2.77;;
68050;SDS011;54839;51.364;7.246;2023-08-07T14:30:29;4.83;;;1.90;;
68050;SDS011;54839;51.364;7.246;2023-08-07T14:32:55;6.13;;;2.20;;
68050;SDS011;54839;51.364;7.246;2023-08-07T14:35:20;3.23;;;1.83;;
68050;SDS011;54839;51.364;7.246;2023-08-07T14:37:46;4.07;;;2.10;;
68050;SDS011;54839;51.364;7.246;2023-08-07T14:40:13;2.80;;;1.70;;
68050;SDS011;54839;51.364;7.246;2023-08-07T14:42:39;5.70;;;1.83;;
68050;SDS011;54839;51.364;7.246;2023-08-07T14:45:05;3.07;;;2.20;;
68050;SDS011;54839;51.364;7.246;2023-08-07T14:47:31;6.03;;;2.30;;
68050;SDS011;54839;51.364;7.246;2023-08-07T14:49:56;4.47;;;1.53;;
68050;SDS011;54839;51.364;7.246;2023-08-07T14:52:22;4.87;;;1.70;;